Time;durP1;ratioP1;P1;durP2;ratioP2;P2;SDS_P1;SDS_P2;PMS_P1;PMS_P2;Temp;Humidity;BMP_temperature;BMP_pressure;BME280_temperature;BME280_humidity;BME280_pressure;Samples;Min_cycle;Max_cycle;Signal;HPM_P1;HPM_P2
2023/03/19 00:00:22;;;;;;;8.27;6.10;;;;;;;9.50;72.30;98004.00;7385010;19;19919;-79
2023/03/19 00:02:50;;;;;;;7.07;6.28;;;;;;;9.54;71.87;98011.47;7376629;19;19921;-78
2023/03/19 00:05:17;;;;;;;6.72;5.75;;;;;;;9.55;71.91;98014.94;7384087;19;19933;-80
2023/03/19 00:07:44;;;;;;;9.60;6.05;;;;;;;9.57;71.82;98012.97;7387195;19;19915;-79
2023/03/19 00:10:11;;;;;;;8.63;6.88;;;;;;;9.59;72.10;98009.19;7381234;19;20030;-79
2023/03/19 00:12:38;;;;;;;8.77;6.88;;;;;;;9.57;72.28;98008.50;7387570;19;19929;-78
2023/03/19 00:15:07;;;;;;;6.97;5.82;;;;;;;9.56;71.94;98006.03;7385156;19;19918;-79
2023/03/19 00:17:34;;;;;;;8.73;5.90;;;;;;;9.62;72.18;98014.13;7387306;19;19943;-79
2023/03/19 00:20:01;;;;;;;8.88;7.97;;;;;;;9.67;71.97;98013.66;7386215;19;20483;-78
2023/03/19 00:22:28;;;;;;;7.07;5.45;;;;;;;9.75;71.83;98012.88;7385460;19;19925;-79
2023/03/19 00:24:55;;;;;;;8.43;6.88;;;;;;;9.77;71.49;98014.38;7385134;19;19939;-79
2023/03/19 00:27:21;;;;;;;10.10;6.35;;;;;;;9.78;71.72;98008.09;7388057;19;19947;-78
2023/03/19 00:29:48;;;;;;;8.45;6.50;;;;;;;9.81;71.57;98013.06;7384754;19;20321;-79
2023/03/19 00:32:15;;;;;;;8.13;5.65;;;;;;;9.74;71.43;98011.22;7382785;19;19914;-77
2023/03/19 00:34:43;;;;;;;10.40;6.68;;;;;;;9.60;71.78;98023.19;7388571;19;20286;-78
2023/03/19 00:37:11;;;;;;;7.72;6.35;;;;;;;9.68;71.93;98016.13;7384235;19;19926;-78
2023/03/19 00:39:38;;;;;;;7.78;5.50;;;;;;;9.66;71.97;98019.91;7395019;19;19926;-79
2023/03/19 00:42:04;;;;;;;9.20;6.32;;;;;;;9.64;71.70;98022.75;7386966;19;20298;-79
2023/03/19 00:44:32;;;;;;;10.02;6.20;;;;;;;9.61;72.07;98020.41;7394165;19;19914;-79
2023/03/19 00:46:58;;;;;;;8.73;6.20;;;;;;;9.58;71.90;98018.06;7399948;19;19947;-79
2023/03/19 00:49:25;;;;;;;7.80;5.82;;;;;;;9.54;72.16;98022.03;7397770;19;19926;-79
2023/03/19 00:51:52;;;;;;;8.38;7.53;;;;;;;9.52;72.26;98023.16;7387247;19;19919;-79
2023/03/19 00:54:18;;;;;;;8.35;6.57;;;;;;;9.51;72.06;98017.06;7383012;19;19922;-79
2023/03/19 00:56:45;;;;;;;8.65;5.95;;;;;;;9.49;72.69;98019.03;7388381;19;19919;-78
2023/03/19 00:59:12;;;;;;;9.48;6.03;;;;;;;9.52;72.35;98020.53;7395934;19;19939;-79
2023/03/19 01:01:38;;;;;;;6.28;5.22;;;;;;;9.53;72.01;98017.75;7403004;19;19948;-79
2023/03/19 01:04:05;;;;;;;7.43;6.72;;;;;;;9.56;72.14;98017.41;7404243;19;19943;-78
2023/03/19 01:06:32;;;;;;;7.53;5.82;;;;;;;9.59;72.00;98013.63;7403350;19;19928;-79
2023/03/19 01:08:58;;;;;;;7.93;6.50;;;;;;;9.61;71.72;98016.94;7401493;19;19911;-79
2023/03/19 01:11:25;;;;;;;8.20;6.28;;;;;;;9.66;72.10;98025.19;7400714;19;19954;-79
2023/03/19 01:13:52;;;;;;;10.20;6.50;;;;;;;9.68;71.99;98024.06;7398829;19;19966;-78
2023/03/19 01:16:19;;;;;;;8.15;6.25;;;;;;;9.70;71.49;98015.16;7403429;19;19910;-79
2023/03/19 01:18:46;;;;;;;6.88;6.10;;;;;;;9.75;71.63;98012.88;7396763;19;19925;-80
2023/03/19 01:21:12;;;;;;;9.68;7.15;;;;;;;9.79;71.56;98008.91;7398147;19;20503;-79
2023/03/19 01:23:44;;;;;;;9.00;6.07;;;;;;;9.81;71.57;98026.25;7398099;19;19922;-79
2023/03/19 01:26:11;;;;;;;8.48;6.35;;;;;;;9.83;71.69;98028.75;7389157;19;19914;-80
2023/03/19 01:28:38;;;;;;;8.93;6.60;;;;;;;9.72;71.96;98035.16;7383166;19;19914;-80
2023/03/19 01:31:08;;;;;;;8.45;6.00;;;;;;;9.48;72.50;98040.28;7380715;19;20013;-80
2023/03/19 01:34:14;;;;;;;9.10;6.53;;;;;;;9.55;72.89;98039.50;7382482;19;19936;-78
2023/03/19 01:36:46;;;;;;;8.23;6.00;;;;;;;9.64;73.04;98043.88;7387729;19;19911;-79
2023/03/19 01:39:15;;;;;;;9.18;6.60;;;;;;;9.58;72.55;98046.28;7387837;19;19947;-79
2023/03/19 01:41:42;;;;;;;9.40;6.53;;;;;;;9.64;72.78;98040.41;7386476;19;19926;-78
2023/03/19 01:44:34;;;;;;;7.93;6.65;;;;;;;9.70;72.54;98046.88;7393932;19;19952;-79
2023/03/19 01:47:35;;;;;;;10.57;6.40;;;;;;;9.33;73.84;98056.72;7393294;19;20376;-79
2023/03/19 01:50:26;;;;;;;9.50;8.50;;;;;;;9.53;73.56;98052.06;7388987;19;20531;-78
2023/03/19 01:53:12;;;;;;;7.95;6.57;;;;;;;9.53;73.82;98059.13;7389853;19;19941;-79
2023/03/19 01:55:49;;;;;;;8.45;6.53;;;;;;;9.62;73.21;98058.22;7389401;19;19935;-79
2023/03/19 01:58:29;;;;;;;8.52;6.40;;;;;;;9.63;73.03;98063.31;7393780;19;19992;-79
2023/03/19 02:01:14;;;;;;;8.43;6.25;;;;;;;9.52;74.38;98071.53;7391748;19;19945;-78
2023/03/19 02:03:45;;;;;;;7.93;6.50;;;;;;;9.29;76.35;98078.31;7395677;19;19971;-79
2023/03/19 02:06:15;;;;;;;;;;;;;;;9.24;77.32;98091.97;7388549;19;19922;-78
2023/03/19 02:08:42;;;;;;;7.65;6.10;;;;;;;8.68;79.16;98101.88;7391607;19;19911;-79
2023/03/19 02:11:09;;;;;;;7.95;6.28;;;;;;;8.93;78.30;98094.22;7390432;19;19914;-79
2023/03/19 02:13:36;;;;;;;9.45;7.18;;;;;;;8.90;78.54;98092.72;7395643;19;19911;-79
2023/03/19 02:16:03;;;;;;;7.03;5.45;;;;;;;9.04;78.35;98079.97;7387447;19;20384;-79
2023/03/19 02:18:30;;;;;;;8.43;6.07;;;;;;;9.09;78.00;98081.16;7391379;19;20353;-79
2023/03/19 02:21:07;;;;;;;8.75;6.13;;;;;;;9.11;77.60;98084.47;7390078;19;19948;-79
2023/03/19 02:23:45;;;;;;;7.03;5.95;;;;;;;9.15;77.79;98088.44;7385405;19;19921;-79
2023/03/19 02:26:20;;;;;;;9.98;7.95;;;;;;;9.14;77.79;98089.44;7391550;19;20702;-80
2023/03/19 02:28:50;;;;;;;8.65;5.93;;;;;;;9.05;77.63;98095.63;7389499;19;19918;-80
2023/03/19 02:31:26;;;;;;;9.90;5.38;;;;;;;9.12;75.30;98090.56;7390424;19;19914;-78
2023/03/19 02:33:56;;;;;;;7.90;4.45;;;;;;;9.37;72.82;98086.28;7390397;19;19919;-78
2023/03/19 02:36:23;;;;;;;6.38;4.90;;;;;;;9.48;73.09;98087.81;7388009;19;20583;-78
2023/03/19 02:38:50;;;;;;;5.35;4.70;;;;;;;9.49;73.35;98095.59;7385265;19;19923;-79
2023/03/19 02:41:18;;;;;;;6.32;5.38;;;;;;;9.49;73.08;98100.88;7385680;19;20255;-78
2023/03/19 02:43:45;;;;;;;5.38;4.03;;;;;;;9.56;72.11;98087.91;7388942;19;19959;-79
2023/03/19 02:46:12;;;;;;;4.93;4.32;;;;;;;9.72;71.09;98090.63;7389238;19;19929;-78
2023/03/19 02:48:40;;;;;;;6.03;5.30;;;;;;;9.90;70.98;98093.19;7391063;19;20542;-80
2023/03/19 02:51:07;;;;;;;6.70;3.30;;;;;;;10.05;71.99;98096.06;7388623;19;19942;-79
2023/03/19 02:53:34;;;;;;;6.28;3.67;;;;;;;10.00;73.82;98099.16;7387569;19;19930;-78
2023/03/19 02:56:01;;;;;;;4.70;3.65;;;;;;;9.96;73.46;98095.19;7383832;19;19914;-79
2023/03/19 02:58:28;;;;;;;6.30;3.85;;;;;;;9.93;73.93;98094.69;7390816;19;19923;-79
2023/03/19 03:00:54;;;;;;;5.82;3.60;;;;;;;9.84;75.65;98083.25;7388828;19;19926;-79
2023/03/19 03:03:21;;;;;;;5.32;4.18;;;;;;;9.67;77.72;98088.44;7386743;19;19914;-80
2023/03/19 03:05:48;;;;;;;5.10;4.03;;;;;;;9.64;78.73;98086.13;7389976;19;19927;-80
2023/03/19 03:08:15;;;;;;;5.75;4.53;;;;;;;9.57;79.39;98087.72;7385525;19;19926;-78
2023/03/19 03:10:42;;;;;;;6.18;4.55;;;;;;;9.56;79.33;98088.72;7386172;19;19918;-79
2023/03/19 03:13:10;;;;;;;5.45;4.30;;;;;;;9.51;79.64;98093.66;7385178;19;19918;-78
2023/03/19 03:15:37;;;;;;;5.30;4.63;;;;;;;9.51;79.83;98104.22;7388931;19;19914;-80
2023/03/19 03:18:04;;;;;;;6.03;5.03;;;;;;;9.48;80.29;98106.31;7388016;19;20565;-80
2023/03/19 03:20:32;;;;;;;7.80;5.88;;;;;;;9.40;79.77;98110.56;7388106;19;19982;-78
2023/03/19 03:22:59;;;;;;;7.10;5.93;;;;;;;9.37;80.00;98108.25;7385629;19;19918;-78
2023/03/19 03:25:27;;;;;;;10.77;6.47;;;;;;;9.30;80.23;98104.56;7386867;19;19929;-77
2023/03/19 03:27:53;;;;;;;8.43;6.93;;;;;;;9.16;81.06;98092.75;7387451;19;19915;-79
2023/03/19 03:30:21;;;;;;;9.98;7.00;;;;;;;9.08;82.59;98095.31;7388609;19;19953;-79
2023/03/19 03:32:47;;;;;;;6.68;6.00;;;;;;;9.03;82.97;98087.06;7390107;19;19919;-77
2023/03/19 03:35:20;;;;;;;8.07;6.40;;;;;;;9.06;82.97;98084.09;7386839;19;19914;-79
2023/03/19 03:37:48;;;;;;;7.00;6.10;;;;;;;9.03;83.21;98100.25;7393790;19;19936;-80
2023/03/19 03:40:16;;;;;;;7.45;6.07;;;;;;;8.81;83.81;98114.72;7389794;19;19922;-80
2023/03/19 03:42:43;;;;;;;8.75;6.03;;;;;;;8.93;83.71;98099.50;7384649;19;19932;-80
2023/03/19 03:45:11;;;;;;;12.68;7.00;;;;;;;8.93;84.25;98102.97;7382480;19;19918;-81
2023/03/19 03:47:39;;;;;;;7.95;6.47;;;;;;;8.92;84.23;98103.91;7387797;19;19926;-80
2023/03/19 03:50:09;;;;;;;7.57;6.18;;;;;;;8.91;84.27;98096.16;7387057;19;19918;-80
2023/03/19 03:52:37;;;;;;;;;;;;;;;8.75;84.81;98107.41;7388824;19;19922;-81
2023/03/19 03:55:04;;;;;;;8.73;5.95;;;;;;;8.60;86.37;98111.53;7384869;19;20213;-80
2023/03/19 03:57:31;;;;;;;8.90;5.97;;;;;;;8.48;87.03;98122.31;7389405;19;19937;-81
2023/03/19 03:59:57;;;;;;;7.07;6.05;;;;;;;8.59;86.51;98107.25;7386109;19;20466;-79
2023/03/19 04:02:24;;;;;;;8.88;6.75;;;;;;;8.61;85.54;98114.03;7383909;19;19922;-82
2023/03/19 04:04:52;;;;;;;9.70;7.15;;;;;;;8.65;85.23;98110.09;7386118;19;20299;-81
2023/03/19 04:07:19;;;;;;;9.93;7.97;;;;;;;8.65;85.09;98115.38;7387911;19;20789;-80
2023/03/19 04:09:52;;;;;;;7.75;6.63;;;;;;;8.62;85.41;98115.69;7387812;19;19923;-82
2023/03/19 04:12:18;;;;;;;8.35;7.00;;;;;;;8.66;84.94;98122.34;7385987;19;19918;-82
2023/03/19 04:14:46;;;;;;;9.95;7.03;;;;;;;8.60;84.98;98124.72;7390087;19;20012;-81
2023/03/19 04:17:13;;;;;;;7.50;6.55;;;;;;;8.62;84.76;98120.97;7388527;19;19950;-83
2023/03/19 04:19:39;;;;;;;10.85;7.40;;;;;;;8.63;84.77;98117.34;7388929;19;19922;-81
2023/03/19 04:22:07;;;;;;;7.38;6.50;;;;;;;8.61;84.76;98118.47;7385910;19;19922;-82
2023/03/19 04:24:34;;;;;;;8.38;6.63;;;;;;;8.62;84.65;98118.31;7388302;19;20509;-80
2023/03/19 04:27:04;;;;;;;8.35;6.82;;;;;;;8.65;84.46;98128.56;7383544;19;19922;-80
2023/03/19 04:29:30;;;;;;;7.13;6.40;;;;;;;8.65;84.71;98136.47;7384002;19;19922;-82
2023/03/19 04:31:58;;;;;;;7.03;5.93;;;;;;;8.61;84.62;98135.13;7386901;19;19918;-80
2023/03/19 04:34:25;;;;;;;8.23;6.95;;;;;;;8.52;85.09;98136.00;7387150;19;19967;-81
2023/03/19 04:36:52;;;;;;;7.18;6.47;;;;;;;8.57;84.84;98141.66;7388710;19;19918;-82
2023/03/19 04:39:18;;;;;;;9.35;6.00;;;;;;;8.53;84.93;98143.78;7386462;19;21359;-81
2023/03/19 04:41:46;;;;;;;9.82;6.05;;;;;;;8.55;84.77;98140.97;7388345;19;19923;-81
2023/03/19 04:44:24;;;;;;;9.57;5.97;;;;;;;8.55;85.08;98143.63;7382504;19;19923;-81
2023/03/19 04:46:51;;;;;;;7.18;5.65;;;;;;;8.60;85.07;98140.53;7389579;19;19943;-80
2023/03/19 04:49:23;;;;;;;7.35;6.05;;;;;;;8.62;85.09;98142.06;7382102;19;19926;-81
2023/03/19 04:51:55;;;;;;;7.03;5.28;;;;;;;8.66;85.00;98138.16;7383515;19;19932;-81
2023/03/19 04:54:23;;;;;;;7.25;5.30;;;;;;;8.68;84.82;98145.91;7378341;19;19932;-81
2023/03/19 04:56:50;;;;;;;6.07;5.45;;;;;;;8.71;84.87;98143.78;7385432;19;19924;-81
2023/03/19 04:59:19;;;;;;;6.60;4.97;;;;;;;8.74;84.76;98138.22;7383359;19;19947;-83
2023/03/19 05:01:48;;;;;;;7.47;5.55;;;;;;;8.77;84.80;98145.84;7389371;19;19926;-81
2023/03/19 05:04:19;;;;;;;10.68;5.80;;;;;;;8.77;84.85;98145.03;7381937;19;19939;-79
2023/03/19 05:06:47;;;;;;;5.55;5.03;;;;;;;8.81;84.53;98146.38;7387280;19;19955;-79
2023/03/19 05:09:14;;;;;;;5.68;5.18;;;;;;;8.84;84.56;98145.22;7383497;19;19922;-82
2023/03/19 05:11:41;;;;;;;10.38;6.03;;;;;;;8.88;84.50;98150.06;7380688;19;19914;-80
2023/03/19 05:14:13;;;;;;;7.85;5.18;;;;;;;8.88;84.08;98163.25;7387893;19;19964;-82
2023/03/19 05:16:56;;;;;;;8.07;6.13;;;;;;;8.83;84.20;98165.50;7387868;19;19915;-83
2023/03/19 05:19:25;;;;;;;7.80;5.43;;;;;;;8.87;84.10;98172.13;7387343;19;19947;-79
2023/03/19 05:21:53;;;;;;;6.97;5.38;;;;;;;8.88;83.90;98168.53;7395136;19;19932;-82
2023/03/19 05:24:26;;;;;;;7.70;5.28;;;;;;;8.91;83.88;98175.31;7383921;19;19911;-80
2023/03/19 05:26:53;;;;;;;7.97;5.05;;;;;;;8.93;83.79;98170.72;7389185;19;19922;-82
2023/03/19 05:29:45;;;;;;;7.65;4.88;;;;;;;8.87;83.74;98172.13;7396891;19;20179;-83
2023/03/19 05:32:41;;;;;;;9.80;4.90;;;;;;;8.81;83.89;98167.47;7400082;19;19930;-80
2023/03/19 05:35:14;;;;;;;6.40;4.70;;;;;;;8.83;84.04;98175.25;7406636;19;19922;-80
2023/03/19 05:37:41;;;;;;;7.18;5.85;;;;;;;8.86;84.15;98161.75;7410007;19;19942;-80
2023/03/19 05:40:09;;;;;;;7.38;5.22;;;;;;;8.83;84.23;98170.78;7407871;19;19939;-82
2023/03/19 05:42:36;;;;;;;8.32;6.25;;;;;;;8.81;84.47;98166.63;7411102;19;19919;-82
2023/03/19 05:45:04;;;;;;;6.95;6.03;;;;;;;8.80;84.81;98176.38;7394008;19;19926;-79
2023/03/19 05:47:56;;;;;;;5.70;5.10;;;;;;;8.84;84.86;98174.25;7413297;19;19935;-79
2023/03/19 05:50:24;;;;;;;6.03;5.43;;;;;;;8.86;84.85;98169.66;7404981;19;19935;-79
2023/03/19 05:53:06;;;;;;;5.63;5.05;;;;;;;8.89;84.81;98175.47;7405176;19;19915;-82
2023/03/19 05:55:35;;;;;;;5.88;4.55;;;;;;;8.89;84.87;98177.28;7398705;19;19982;-81
2023/03/19 05:58:06;;;;;;;6.28;5.43;;;;;;;8.91;84.90;98177.97;7402174;19;19939;-81
2023/03/19 06:00:33;;;;;;;6.38;5.22;;;;;;;8.92;84.86;98179.59;7400577;19;19918;-82
2023/03/19 06:03:01;;;;;;;6.07;4.72;;;;;;;8.91;84.85;98185.88;7402512;19;19918;-84
2023/03/19 06:05:36;;;;;;;7.18;5.38;;;;;;;8.91;84.87;98188.50;7402992;19;20222;-82
2023/03/19 06:08:15;;;;;;;7.10;6.28;;;;;;;8.99;84.98;98188.59;7403136;19;19959;-82
2023/03/19 06:11:10;;;;;;;6.88;4.63;;;;;;;9.02;84.98;98194.38;7394731;19;19929;-81
2023/03/19 06:13:38;;;;;;;7.13;5.70;;;;;;;9.05;84.76;98190.63;7394233;19;19928;-84
2023/03/19 06:16:07;;;;;;;;;;;;;;;9.08;84.72;98203.50;7398132;19;19922;-83
2023/03/19 06:18:44;;;;;;;7.47;5.55;;;;;;;9.07;85.36;98198.41;7391770;19;19931;-82
2023/03/19 06:21:12;;;;;;;6.30;5.43;;;;;;;9.12;85.14;98196.97;7390742;19;19919;-83
2023/03/19 06:23:39;;;;;;;5.63;4.88;;;;;;;9.13;85.31;98211.81;7393124;19;19923;-83
2023/03/19 06:26:08;;;;;;;7.45;5.28;;;;;;;9.16;85.00;98208.03;7392265;19;19978;-82
2023/03/19 06:28:43;;;;;;;8.45;5.70;;;;;;;9.18;85.06;98201.63;7387924;19;19922;-83
2023/03/19 06:31:11;;;;;;;6.32;5.15;;;;;;;9.20;84.91;98202.31;7388603;19;19930;-83
2023/03/19 06:33:54;;;;;;;8.63;6.47;;;;;;;9.22;84.60;98204.81;7395543;19;19914;-83
2023/03/19 06:36:24;;;;;;;7.50;6.80;;;;;;;9.25;84.46;98204.50;7389715;19;19919;-83
2023/03/19 06:38:51;;;;;;;6.32;4.70;;;;;;;9.32;84.62;98202.94;7392310;19;19925;-82
2023/03/19 06:41:18;;;;;;;6.72;4.85;;;;;;;9.39;84.75;98205.78;7392730;19;19919;-82
2023/03/19 06:43:46;;;;;;;6.50;5.15;;;;;;;9.43;84.57;98200.03;7386805;19;19914;-82
2023/03/19 06:46:13;;;;;;;6.45;5.15;;;;;;;9.47;84.49;98200.56;7392645;19;19914;-83
2023/03/19 06:48:40;;;;;;;6.47;5.93;;;;;;;9.54;84.68;98204.25;7393513;19;19973;-81
2023/03/19 06:51:07;;;;;;;6.43;4.85;;;;;;;9.58;84.15;98202.13;7389281;19;19975;-81
2023/03/19 06:53:33;;;;;;;6.90;5.00;;;;;;;9.62;84.18;98201.66;7390104;19;19918;-83
2023/03/19 06:56:00;;;;;;;8.95;6.30;;;;;;;9.63;83.94;98200.66;7395307;19;20545;-82
2023/03/19 06:58:27;;;;;;;5.30;4.18;;;;;;;9.66;83.74;98208.31;7390391;19;20276;-79
2023/03/19 07:00:55;;;;;;;5.43;4.22;;;;;;;9.68;83.63;98202.84;7393452;19;19915;-82
2023/03/19 07:03:22;;;;;;;5.22;4.18;;;;;;;9.69;83.49;98204.53;7384802;19;19943;-83
2023/03/19 07:05:50;;;;;;;5.25;4.32;;;;;;;9.73;83.38;98205.03;7391797;19;20313;-83
2023/03/19 07:08:17;;;;;;;5.93;3.88;;;;;;;9.80;83.60;98199.00;7389123;19;19926;-80
2023/03/19 07:10:44;;;;;;;5.50;3.88;;;;;;;9.83;83.21;98211.06;7392273;19;20341;-80
2023/03/19 07:13:10;;;;;;;5.20;4.60;;;;;;;9.84;82.91;98212.72;7391951;19;19918;-85
2023/03/19 07:15:40;;;;;;;5.63;4.60;;;;;;;9.75;81.26;98216.28;7395407;19;19922;-83
2023/03/19 07:18:07;;;;;;;5.97;3.90;;;;;;;9.84;81.95;98212.72;7391732;19;19922;-82
2023/03/19 07:20:33;;;;;;;5.85;4.10;;;;;;;9.82;81.51;98214.66;7391085;19;19918;-81
2023/03/19 07:23:00;;;;;;;5.03;4.53;;;;;;;9.91;81.81;98219.03;7397096;19;19922;-81
2023/03/19 07:25:27;;;;;;;4.47;3.60;;;;;;;9.96;81.07;98227.34;7389021;19;20644;-81
2023/03/19 07:27:54;;;;;;;5.05;3.88;;;;;;;10.04;80.53;98223.91;7395745;19;19962;-83
2023/03/19 07:30:21;;;;;;;5.25;4.10;;;;;;;10.16;81.52;98222.66;7395618;19;20340;-82
2023/03/19 07:32:48;;;;;;;4.85;4.35;;;;;;;10.26;81.43;98218.06;7399184;19;19948;-83
2023/03/19 07:35:14;;;;;;;4.38;2.95;;;;;;;10.38;80.92;98225.78;7396659;19;19918;-84
2023/03/19 07:37:41;;;;;;;4.18;3.42;;;;;;;10.49;80.78;98222.84;7397422;19;19927;-83
2023/03/19 07:40:09;;;;;;;4.35;3.38;;;;;;;10.56;80.71;98223.88;7392188;19;19956;-83
2023/03/19 07:42:35;;;;;;;4.55;3.25;;;;;;;10.64;79.48;98223.09;7393089;19;19918;-78
2023/03/19 07:45:03;;;;;;;6.40;3.38;;;;;;;10.70;78.92;98217.16;7393922;19;19923;-83
2023/03/19 07:47:30;;;;;;;4.43;3.05;;;;;;;10.75;78.67;98222.78;7392076;19;19915;-81
2023/03/19 07:49:57;;;;;;;4.38;3.70;;;;;;;10.76;78.40;98227.09;7395069;19;19926;-81
2023/03/19 07:52:24;;;;;;;3.58;3.28;;;;;;;10.78;78.54;98233.06;7392629;19;19918;-81
2023/03/19 07:54:51;;;;;;;4.20;3.08;;;;;;;10.77;79.33;98234.06;7388091;19;19939;-83
2023/03/19 07:57:18;;;;;;;5.82;4.00;;;;;;;10.75;nan;98233.38;7391892;19;20404;-79
2023/03/19 07:59:45;;;;;;;6.40;4.05;;;;;;;10.79;78.50;98232.06;7388485;19;19930;-81
2023/03/19 08:02:12;;;;;;;4.43;3.97;;;;;;;10.86;78.43;98230.44;7395285;19;19914;-81
2023/03/19 08:04:39;;;;;;;3.45;2.67;;;;;;;10.91;78.54;98225.47;7390754;19;19923;-81
2023/03/19 08:07:09;;;;;;;5.18;4.78;;;;;;;11.01;78.06;98232.47;7391322;19;20543;-81
2023/03/19 08:09:36;;;;;;;4.47;3.92;;;;;;;11.09;78.46;98238.59;7393443;19;19959;-82
2023/03/19 08:12:04;;;;;;;4.32;3.90;;;;;;;11.22;78.11;98240.78;7393872;19;19959;-82
2023/03/19 08:14:31;;;;;;;4.53;3.58;;;;;;;11.31;78.06;98242.44;7390503;19;19922;-81
2023/03/19 08:16:59;;;;;;;2.55;2.33;;;;;;;11.32;76.11;98246.75;7397251;19;19930;-82
2023/03/19 08:19:26;;;;;;;4.43;2.83;;;;;;;11.35;74.52;98243.78;7392704;19;19926;-82
2023/03/19 08:21:53;;;;;;;2.60;1.98;;;;;;;11.32;74.29;98244.09;7393630;19;19939;-81
2023/03/19 08:24:19;;;;;;;3.78;2.42;;;;;;;11.37;74.21;98243.59;7392385;19;19922;-82
2023/03/19 08:26:46;;;;;;;2.50;2.22;;;;;;;11.44;75.05;98236.66;7398506;19;20378;-80
2023/03/19 08:29:13;;;;;;;3.00;2.55;;;;;;;11.48;75.03;98238.00;7396162;19;19919;-80
2023/03/19 08:31:40;;;;;;;2.85;1.92;;;;;;;11.52;74.34;98235.84;7390987;19;20287;-82
2023/03/19 08:34:09;;;;;;;3.78;3.00;;;;;;;11.61;74.24;98237.47;7396030;19;19914;-81
2023/03/19 08:36:36;;;;;;;3.05;2.15;;;;;;;11.64;75.15;98229.22;7395822;19;19946;-80
2023/03/19 08:39:03;;;;;;;2.67;2.47;;;;;;;11.67;74.21;98234.19;7398973;19;19920;-80
2023/03/19 08:41:30;;;;;;;2.40;2.20;;;;;;;11.73;74.68;98233.50;7393700;19;19932;-82
2023/03/19 08:43:57;;;;;;;2.75;2.35;;;;;;;11.79;74.42;98226.72;7397545;19;19907;-80
2023/03/19 08:46:25;;;;;;;4.07;1.88;;;;;;;11.94;75.48;98230.38;7389975;19;20783;-81
2023/03/19 08:48:52;;;;;;;3.40;2.22;;;;;;;12.05;74.29;98229.19;7395173;19;19966;-81
2023/03/19 08:51:19;;;;;;;3.55;2.75;;;;;;;12.12;74.15;98226.72;7393114;19;19922;-82
2023/03/19 08:53:46;;;;;;;1.85;1.67;;;;;;;12.17;72.77;98241.13;7400378;19;19926;-83
2023/03/19 08:56:13;;;;;;;5.38;2.08;;;;;;;12.20;72.65;98229.34;7410391;19;20837;-81
2023/03/19 08:58:42;;;;;;;2.72;2.25;;;;;;;12.28;72.91;98234.63;7408606;19;19922;-82
2023/03/19 09:01:12;;;;;;;2.20;1.52;;;;;;;12.21;71.92;98242.41;7410324;19;20424;-83
2023/03/19 09:03:40;;;;;;;2.67;1.88;;;;;;;12.34;73.71;98243.72;7397125;19;19919;-84
2023/03/19 09:06:09;;;;;;;4.97;2.63;;;;;;;12.36;70.96;98239.91;7399519;19;20220;-82
2023/03/19 09:08:36;;;;;;;2.50;2.28;;;;;;;12.38;70.33;98245.06;7399218;19;19911;-82
2023/03/19 09:11:04;;;;;;;2.13;1.45;;;;;;;12.45;70.52;98253.97;7396119;19;20001;-83
2023/03/19 09:13:31;;;;;;;3.00;1.98;;;;;;;12.52;70.10;98255.78;7390566;19;19923;-83
2023/03/19 09:15:58;;;;;;;2.00;1.35;;;;;;;12.64;69.30;98250.94;7395138;19;19919;-83
2023/03/19 09:18:25;;;;;;;3.30;1.65;;;;;;;12.82;70.11;98261.31;7395857;19;19935;-83
2023/03/19 09:20:52;;;;;;;3.13;1.90;;;;;;;13.00;70.50;98257.56;7396834;19;19963;-80
2023/03/19 09:23:20;;;;;;;2.63;2.05;;;;;;;13.35;73.21;98249.09;7400034;19;19930;-81
2023/03/19 09:25:47;;;;;;;3.53;2.00;;;;;;;13.56;71.26;98251.09;7393071;19;19914;-82
2023/03/19 09:28:14;;;;;;;1.77;1.60;;;;;;;13.74;68.67;98249.94;7390310;19;19915;-81
2023/03/19 09:30:45;;;;;;;3.13;1.75;;;;;;;13.77;66.88;98252.25;7391087;19;19951;-82
2023/03/19 09:33:15;;;;;;;2.83;1.48;;;;;;;13.83;68.02;98246.25;7404019;19;19923;-83
2023/03/19 09:35:42;;;;;;;1.95;1.75;;;;;;;13.83;68.55;98243.56;7394268;19;19915;-83
2023/03/19 09:38:09;;;;;;;2.42;2.22;;;;;;;13.94;68.05;98245.78;7394892;19;20036;-80
2023/03/19 09:40:38;;;;;;;2.30;1.70;;;;;;;14.17;64.48;98251.06;7385658;19;20579;-81
2023/03/19 09:43:16;;;;;;;3.67;2.05;;;;;;;14.61;64.56;98247.63;7394446;19;19958;-82
2023/03/19 09:45:44;;;;;;;1.75;1.38;;;;;;;14.97;62.92;98238.03;7400299;19;20461;-80
2023/03/19 09:48:51;;;;;;;3.47;1.60;;;;;;;15.17;60.91;98241.75;7408567;19;19911;-80
2023/03/19 09:51:21;;;;;;;4.47;2.55;;;;;;;15.31;65.32;98242.72;7410077;19;20010;-81
2023/03/19 09:54:00;;;;;;;5.10;2.10;;;;;;;15.29;64.31;98232.22;7398887;19;19925;-81
2023/03/19 09:56:31;;;;;;;4.10;1.52;;;;;;;15.25;63.51;98232.81;7407427;19;19943;-80
2023/03/19 09:58:58;;;;;;;2.22;1.70;;;;;;;15.36;62.72;98241.13;7408502;19;19947;-81
2023/03/19 10:01:32;;;;;;;2.45;2.17;;;;;;;15.41;60.97;98237.91;7413780;19;19918;-83
2023/03/19 10:04:18;;;;;;;3.45;2.05;;;;;;;15.29;58.53;98236.75;7412985;19;19911;-83
2023/03/19 10:06:45;;;;;;;3.75;3.15;;;;;;;15.31;62.36;98240.06;7417688;19;19947;-82
2023/03/19 10:09:26;;;;;;;4.18;2.05;;;;;;;15.25;63.75;98238.16;7419948;19;19910;-78
2023/03/19 10:12:19;;;;;;;3.70;1.77;;;;;;;15.13;58.46;98237.81;7417673;19;19911;-82
2023/03/19 10:15:13;;;;;;;2.72;2.53;;;;;;;15.24;62.27;98223.97;7413696;19;19919;-78
2023/03/19 10:17:48;;;;;;;3.10;2.67;;;;;;;15.41;59.01;98227.25;7412896;19;20502;-82
2023/03/19 10:20:28;;;;;;;3.60;2.22;;;;;;;15.61;58.39;98218.59;7406546;19;19924;-80
2023/03/19 10:23:29;;;;;;;2.45;1.70;;;;;;;15.82;52.69;98215.09;7395235;19;21937;-82
2023/03/19 10:25:58;;;;;;;3.00;1.45;;;;;;;16.07;56.98;98216.34;7394740;19;19922;-82
2023/03/19 10:28:27;;;;;;;2.70;1.40;;;;;;;15.99;52.68;98219.16;7404578;19;19914;-78
2023/03/19 10:31:10;;;;;;;2.97;1.88;;;;;;;15.78;50.96;98215.50;7406374;19;19925;-81
2023/03/19 10:34:05;;;;;;;2.70;1.13;;;;;;;15.88;51.49;98209.84;7402277;19;20320;-80
2023/03/19 10:36:35;;;;;;;2.47;1.38;;;;;;;16.07;52.12;98219.00;7407392;19;19947;-80
2023/03/19 10:39:05;;;;;;;2.50;2.10;;;;;;;16.18;53.14;98213.13;7408260;19;19921;-80
2023/03/19 10:42:07;;;;;;;2.03;1.55;;;;;;;16.51;51.63;98206.31;7408888;19;19958;-80
2023/03/19 10:44:36;;;;;;;3.15;1.20;;;;;;;16.69;49.30;98201.25;7387749;19;19962;-81
2023/03/19 10:47:12;;;;;;;2.90;1.95;;;;;;;16.72;50.60;98197.38;7385419;19;19919;-81
2023/03/19 10:49:39;;;;;;;3.97;1.73;;;;;;;16.79;50.55;98195.59;7390943;19;20345;-81
2023/03/19 10:52:16;;;;;;;4.63;1.77;;;;;;;17.07;52.72;98195.47;7391556;19;19918;-81
2023/03/19 10:54:43;;;;;;;2.78;1.60;;;;;;;16.87;52.91;98200.75;7392571;19;19940;-78
2023/03/19 10:57:22;;;;;;;2.17;1.85;;;;;;;16.85;49.93;98189.44;7394615;19;19918;-81
2023/03/19 10:59:49;;;;;;;4.03;1.95;;;;;;;16.57;53.68;98187.66;7388202;19;19944;-79
2023/03/19 11:02:29;;;;;;;3.08;1.95;;;;;;;16.58;53.23;98186.63;7391474;19;19915;-79
2023/03/19 11:05:11;;;;;;;2.85;2.22;;;;;;;16.96;51.01;98172.84;7394097;19;19922;-79
2023/03/19 11:07:38;;;;;;;4.97;2.13;;;;;;;17.47;50.81;98176.81;7391424;19;19921;-79
2023/03/19 11:10:13;;;;;;;1.83;1.52;;;;;;;17.83;51.41;98172.97;7393210;19;19910;-79
2023/03/19 11:12:40;;;;;;;5.13;2.47;;;;;;;17.81;49.68;98175.81;7385926;19;19930;-80
2023/03/19 11:15:21;;;;;;;3.50;1.65;;;;;;;17.81;48.38;98175.00;7389201;19;19922;-80
2023/03/19 11:17:56;;;;;;;2.67;1.70;;;;;;;17.96;50.24;98179.13;7391096;19;19939;-78
2023/03/19 11:20:35;;;;;;;3.95;1.77;;;;;;;18.19;48.06;98165.28;7383048;19;19911;-80
2023/03/19 11:23:08;;;;;;;5.65;2.45;;;;;;;18.04;49.58;98170.03;7388543;19;20375;-80
2023/03/19 11:25:40;;;;;;;4.45;2.42;;;;;;;18.12;46.61;98171.69;7386540;19;20345;-80
2023/03/19 11:28:20;;;;;;;2.92;2.25;;;;;;;18.03;46.15;98170.25;7389653;19;19943;-80
2023/03/19 11:31:02;;;;;;;4.65;2.47;;;;;;;18.26;48.09;98173.28;7391103;19;19923;-81
2023/03/19 11:33:36;;;;;;;2.28;1.83;;;;;;;18.24;48.94;98164.63;7390602;19;19922;-81
2023/03/19 11:36:15;;;;;;;3.22;1.98;;;;;;;18.11;46.87;98164.66;7388445;19;19925;-80
2023/03/19 11:39:03;;;;;;;2.80;2.60;;;;;;;18.43;47.15;98155.72;7393837;19;19978;-80
2023/03/19 11:41:49;;;;;;;5.25;2.00;;;;;;;18.63;46.14;98157.50;7384551;19;19922;-80
2023/03/19 11:44:26;;;;;;;2.63;1.63;;;;;;;18.31;45.38;98156.59;7393298;19;19915;-80
2023/03/19 11:47:16;;;;;;;2.45;1.85;;;;;;;18.09;45.96;98147.97;7389873;19;19936;-80
2023/03/19 11:50:17;;;;;;;1.42;1.33;;;;;;;18.35;47.54;98149.78;7389595;19;19925;-79
2023/03/19 11:52:56;;;;;;;1.83;1.42;;;;;;;18.69;46.71;98145.09;7391979;19;19943;-80
2023/03/19 11:55:34;;;;;;;3.10;1.48;;;;;;;19.16;45.62;98137.66;7394735;19;19997;-80